sensor_id;sensor_type;location;lat;lon;timestamp;P1;durP1;ratioP1;P2;durP2;ratioP2
63902;SDS011;50072;50.678;13.938;2024-03-08T00:10:42;39.40;;;15.98;;
63902;SDS011;50072;50.678;13.938;2024-03-08T00:13:08;46.00;;;17.70;;
63902;SDS011;50072;50.678;13.938;2024-03-08T00:15:36;44.20;;;17.95;;
63902;SDS011;50072;50.678;13.938;2024-03-08T00:18:03;47.53;;;16.75;;
63902;SDS011;50072;50.678;13.938;2024-03-08T00:20:29;41.50;;;17.15;;
63902;SDS011;50072;50.678;13.938;2024-03-08T00:23:02;75.03;;;24.92;;
63902;SDS011;50072;50.678;13.938;2024-03-08T00:25:30;46.38;;;17.75;;
63902;SDS011;50072;50.678;13.938;2024-03-08T00:27:56;44.60;;;16.88;;
63902;SDS011;50072;50.678;13.938;2024-03-08T00:30:22;41.65;;;16.13;;
63902;SDS011;50072;50.678;13.938;2024-03-08T00:32:52;44.50;;;18.08;;
63902;SDS011;50072;50.678;13.938;2024-03-08T00:35:20;49.50;;;16.90;;
63902;SDS011;50072;50.678;13.938;2024-03-08T00:37:46;43.50;;;17.13;;
63902;SDS011;50072;50.678;13.938;2024-03-08T00:40:14;44.20;;;16.98;;
63902;SDS011;50072;50.678;13.938;2024-03-08T00:42:40;52.38;;;18.23;;
63902;SDS011;50072;50.678;13.938;2024-03-08T00:45:13;47.17;;;17.75;;
63902;SDS011;50072;50.678;13.938;2024-03-08T00:47:39;43.22;;;17.10;;
63902;SDS011;50072;50.678;13.938;2024-03-08T00:50:05;41.10;;;16.30;;
63902;SDS011;50072;50.678;13.938;2024-03-08T00:52:32;36.10;;;15.50;;
63902;SDS011;50072;50.678;13.938;2024-03-08T00:55:01;44.40;;;17.10;;
63902;SDS011;50072;50.678;13.938;2024-03-08T00:57:27;43.03;;;16.83;;
63902;SDS011;50072;50.678;13.938;2024-03-08T00:59:53;40.03;;;15.68;;
63902;SDS011;50072;50.678;13.938;2024-03-08T01:02:20;34.97;;;16.02;;
63902;SDS011;50072;50.678;13.938;2024-03-08T01:04:53;41.50;;;16.40;;
63902;SDS011;50072;50.678;13.938;2024-03-08T01:07:25;43.10;;;15.70;;
63902;SDS011;50072;50.678;13.938;2024-03-08T01:10:04;34.05;;;13.82;;
63902;SDS011;50072;50.678;13.938;2024-03-08T01:12:35;43.60;;;16.55;;
63902;SDS011;50072;50.678;13.938;2024-03-08T01:15:01;39.67;;;16.73;;
63902;SDS011;50072;50.678;13.938;2024-03-08T01:17:27;48.30;;;17.65;;
63902;SDS011;50072;50.678;13.938;2024-03-08T01:19:53;56.03;;;18.05;;
63902;SDS011;50072;50.678;13.938;2024-03-08T01:22:21;52.35;;;19.15;;
63902;SDS011;50072;50.678;13.938;2024-03-08T01:27:19;51.53;;;18.20;;
63902;SDS011;50072;50.678;13.938;2024-03-08T01:29:45;42.42;;;15.95;;
63902;SDS011;50072;50.678;13.938;2024-03-08T01:32:11;39.33;;;15.75;;
63902;SDS011;50072;50.678;13.938;2024-03-08T01:34:39;41.05;;;15.57;;
63902;SDS011;50072;50.678;13.938;2024-03-08T01:37:07;38.38;;;15.13;;
63902;SDS011;50072;50.678;13.938;2024-03-08T01:39:41;44.55;;;16.17;;
63902;SDS011;50072;50.678;13.938;2024-03-08T01:42:07;43.80;;;16.17;;
63902;SDS011;50072;50.678;13.938;2024-03-08T01:44:33;36.92;;;14.90;;
63902;SDS011;50072;50.678;13.938;2024-03-08T01:47:03;42.78;;;15.85;;
63902;SDS011;50072;50.678;13.938;2024-03-08T01:49:30;61.88;;;21.38;;
63902;SDS011;50072;50.678;13.938;2024-03-08T01:51:57;78.47;;;25.02;;
63902;SDS011;50072;50.678;13.938;2024-03-08T01:54:23;126.60;;;36.17;;
63902;SDS011;50072;50.678;13.938;2024-03-08T01:56:50;66.32;;;23.02;;
63902;SDS011;50072;50.678;13.938;2024-03-08T01:59:15;45.22;;;16.63;;
63902;SDS011;50072;50.678;13.938;2024-03-08T02:01:42;49.35;;;18.25;;
63902;SDS011;50072;50.678;13.938;2024-03-08T02:04:09;46.25;;;16.92;;
63902;SDS011;50072;50.678;13.938;2024-03-08T02:06:36;43.85;;;15.38;;
63902;SDS011;50072;50.678;13.938;2024-03-08T02:09:05;35.50;;;14.07;;
63902;SDS011;50072;50.678;13.938;2024-03-08T02:11:32;42.03;;;15.68;;
63902;SDS011;50072;50.678;13.938;2024-03-08T02:13:59;36.90;;;14.25;;
63902;SDS011;50072;50.678;13.938;2024-03-08T02:16:25;38.88;;;14.95;;
63902;SDS011;50072;50.678;13.938;2024-03-08T02:18:52;37.03;;;15.10;;
63902;SDS011;50072;50.678;13.938;2024-03-08T02:21:18;36.78;;;14.70;;
63902;SDS011;50072;50.678;13.938;2024-03-08T02:23:46;42.38;;;15.85;;
63902;SDS011;50072;50.678;13.938;2024-03-08T02:26:17;38.97;;;15.77;;
63902;SDS011;50072;50.678;13.938;2024-03-08T02:28:45;79.43;;;24.57;;
63902;SDS011;50072;50.678;13.938;2024-03-08T02:31:12;53.15;;;18.23;;
63902;SDS011;50072;50.678;13.938;2024-03-08T02:36:15;55.33;;;18.67;;
63902;SDS011;50072;50.678;13.938;2024-03-08T02:38:41;56.45;;;18.67;;
63902;SDS011;50072;50.678;13.938;2024-03-08T02:41:08;51.20;;;17.63;;
63902;SDS011;50072;50.678;13.938;2024-03-08T02:46:45;43.85;;;15.57;;
63902;SDS011;50072;50.678;13.938;2024-03-08T02:49:15;46.17;;;16.98;;
63902;SDS011;50072;50.678;13.938;2024-03-08T02:54:11;47.17;;;16.90;;
63902;SDS011;50072;50.678;13.938;2024-03-08T02:56:38;44.28;;;16.65;;
63902;SDS011;50072;50.678;13.938;2024-03-08T02:59:04;45.47;;;16.98;;
63902;SDS011;50072;50.678;13.938;2024-03-08T03:01:31;40.67;;;15.73;;
63902;SDS011;50072;50.678;13.938;2024-03-08T03:03:59;35.65;;;15.05;;
63902;SDS011;50072;50.678;13.938;2024-03-08T03:06:32;32.97;;;12.45;;
63902;SDS011;50072;50.678;13.938;2024-03-08T03:09:01;42.55;;;15.38;;
63902;SDS011;50072;50.678;13.938;2024-03-08T03:11:28;40.97;;;15.27;;
63902;SDS011;50072;50.678;13.938;2024-03-08T03:13:54;41.63;;;15.00;;
63902;SDS011;50072;50.678;13.938;2024-03-08T03:16:21;42.88;;;15.50;;
63902;SDS011;50072;50.678;13.938;2024-03-08T03:18:54;39.05;;;14.43;;
63902;SDS011;50072;50.678;13.938;2024-03-08T03:21:23;42.85;;;16.17;;
63902;SDS011;50072;50.678;13.938;2024-03-08T03:24:00;39.13;;;14.15;;
63902;SDS011;50072;50.678;13.938;2024-03-08T03:26:42;39.90;;;14.70;;
63902;SDS011;50072;50.678;13.938;2024-03-08T03:29:10;42.47;;;15.90;;
63902;SDS011;50072;50.678;13.938;2024-03-08T03:31:36;45.63;;;16.77;;
63902;SDS011;50072;50.678;13.938;2024-03-08T03:34:03;49.72;;;17.42;;
63902;SDS011;50072;50.678;13.938;2024-03-08T03:36:30;50.33;;;18.23;;
63902;SDS011;50072;50.678;13.938;2024-03-08T03:38:58;44.67;;;15.52;;
63902;SDS011;50072;50.678;13.938;2024-03-08T03:41:50;41.47;;;15.57;;
63902;SDS011;50072;50.678;13.938;2024-03-08T03:44:17;41.95;;;15.32;;
63902;SDS011;50072;50.678;13.938;2024-03-08T03:46:44;42.20;;;16.10;;
63902;SDS011;50072;50.678;13.938;2024-03-08T03:49:13;48.10;;;15.65;;
63902;SDS011;50072;50.678;13.938;2024-03-08T03:51:39;42.17;;;15.57;;
63902;SDS011;50072;50.678;13.938;2024-03-08T03:54:05;44.78;;;15.57;;
63902;SDS011;50072;50.678;13.938;2024-03-08T03:56:37;39.53;;;15.77;;
63902;SDS011;50072;50.678;13.938;2024-03-08T03:59:04;41.97;;;17.30;;
63902;SDS011;50072;50.678;13.938;2024-03-08T04:01:31;45.00;;;15.05;;
63902;SDS011;50072;50.678;13.938;2024-03-08T04:04:03;46.45;;;15.15;;
63902;SDS011;50072;50.678;13.938;2024-03-08T04:06:39;45.83;;;16.85;;
63902;SDS011;50072;50.678;13.938;2024-03-08T04:09:05;37.80;;;15.07;;
63902;SDS011;50072;50.678;13.938;2024-03-08T04:14:10;38.20;;;14.98;;
63902;SDS011;50072;50.678;13.938;2024-03-08T04:16:39;43.22;;;14.85;;
63902;SDS011;50072;50.678;13.938;2024-03-08T04:19:11;38.38;;;15.07;;
63902;SDS011;50072;50.678;13.938;2024-03-08T04:21:37;24.17;;;10.82;;
63902;SDS011;50072;50.678;13.938;2024-03-08T04:26:39;40.08;;;14.00;;
63902;SDS011;50072;50.678;13.938;2024-03-08T04:29:16;38.05;;;14.60;;
63902;SDS011;50072;50.678;13.938;2024-03-08T04:31:45;42.47;;;15.48;;
63902;SDS011;50072;50.678;13.938;2024-03-08T04:34:18;49.13;;;16.13;;
63902;SDS011;50072;50.678;13.938;2024-03-08T04:36:45;40.58;;;16.77;;
63902;SDS011;50072;50.678;13.938;2024-03-08T04:39:16;45.00;;;16.35;;
63902;SDS011;50072;50.678;13.938;2024-03-08T04:41:45;37.88;;;15.30;;
63902;SDS011;50072;50.678;13.938;2024-03-08T04:44:15;43.90;;;16.67;;
63902;SDS011;50072;50.678;13.938;2024-03-08T04:46:45;39.08;;;15.38;;
63902;SDS011;50072;50.678;13.938;2024-03-08T04:49:15;45.63;;;15.93;;
63902;SDS011;50072;50.678;13.938;2024-03-08T04:51:44;80.45;;;25.08;;
63902;SDS011;50072;50.678;13.938;2024-03-08T04:54:16;51.13;;;18.30;;
63902;SDS011;50072;50.678;13.938;2024-03-08T04:56:42;50.33;;;17.80;;
63902;SDS011;50072;50.678;13.938;2024-03-08T04:59:09;45.97;;;15.80;;
63902;SDS011;50072;50.678;13.938;2024-03-08T05:01:35;46.08;;;18.27;;
63902;SDS011;50072;50.678;13.938;2024-03-08T05:04:03;49.50;;;17.52;;
63902;SDS011;50072;50.678;13.938;2024-03-08T05:06:29;54.28;;;18.75;;
63902;SDS011;50072;50.678;13.938;2024-03-08T05:08:56;46.80;;;16.50;;
63902;SDS011;50072;50.678;13.938;2024-03-08T05:11:22;46.47;;;18.42;;
63902;SDS011;50072;50.678;13.938;2024-03-08T05:13:48;47.28;;;18.33;;
63902;SDS011;50072;50.678;13.938;2024-03-08T05:16:14;49.35;;;16.63;;
63902;SDS011;50072;50.678;13.938;2024-03-08T05:18:42;50.47;;;17.27;;
63902;SDS011;50072;50.678;13.938;2024-03-08T05:21:09;42.90;;;16.65;;
63902;SDS011;50072;50.678;13.938;2024-03-08T05:23:36;42.00;;;16.17;;
63902;SDS011;50072;50.678;13.938;2024-03-08T05:26:05;47.78;;;15.80;;
63902;SDS011;50072;50.678;13.938;2024-03-08T05:28:30;43.50;;;16.73;;
63902;SDS011;50072;50.678;13.938;2024-03-08T05:30:56;43.53;;;15.63;;
63902;SDS011;50072;50.678;13.938;2024-03-08T05:33:23;43.65;;;17.00;;
63902;SDS011;50072;50.678;13.938;2024-03-08T05:35:49;42.55;;;15.88;;
63902;SDS011;50072;50.678;13.938;2024-03-08T05:38:15;45.50;;;16.48;;
63902;SDS011;50072;50.678;13.938;2024-03-08T05:40:47;44.67;;;16.08;;
63902;SDS011;50072;50.678;13.938;2024-03-08T05:43:12;41.90;;;15.02;;
63902;SDS011;50072;50.678;13.938;2024-03-08T05:45:39;49.15;;;17.60;;
63902;SDS011;50072;50.678;13.938;2024-03-08T05:48:05;44.25;;;17.15;;
63902;SDS011;50072;50.678;13.938;2024-03-08T05:50:33;49.63;;;17.52;;
63902;SDS011;50072;50.678;13.938;2024-03-08T05:52:59;53.50;;;18.70;;
63902;SDS011;50072;50.678;13.938;2024-03-08T05:55:25;58.15;;;19.23;;
63902;SDS011;50072;50.678;13.938;2024-03-08T05:57:51;47.95;;;17.70;;
63902;SDS011;50072;50.678;13.938;2024-03-08T06:00:19;51.90;;;19.10;;
63902;SDS011;50072;50.678;13.938;2024-03-08T06:02:45;47.90;;;18.00;;
63902;SDS011;50072;50.678;13.938;2024-03-08T06:05:11;53.50;;;18.23;;
63902;SDS011;50072;50.678;13.938;2024-03-08T06:07:37;47.90;;;18.08;;
63902;SDS011;50072;50.678;13.938;2024-03-08T06:10:08;44.58;;;18.75;;
63902;SDS011;50072;50.678;13.938;2024-03-08T06:12:39;52.07;;;19.23;;
63902;SDS011;50072;50.678;13.938;2024-03-08T06:15:08;50.15;;;18.45;;
63902;SDS011;50072;50.678;13.938;2024-03-08T06:17:35;51.22;;;19.77;;
63902;SDS011;50072;50.678;13.938;2024-03-08T06:20:02;51.72;;;18.02;;
63902;SDS011;50072;50.678;13.938;2024-03-08T06:22:37;47.33;;;18.30;;
63902;SDS011;50072;50.678;13.938;2024-03-08T06:25:08;50.50;;;17.95;;
63902;SDS011;50072;50.678;13.938;2024-03-08T06:27:36;46.65;;;17.63;;
63902;SDS011;50072;50.678;13.938;2024-03-08T06:30:04;45.03;;;16.45;;
63902;SDS011;50072;50.678;13.938;2024-03-08T06:32:31;44.67;;;16.80;;
63902;SDS011;50072;50.678;13.938;2024-03-08T06:35:02;47.10;;;17.95;;
63902;SDS011;50072;50.678;13.938;2024-03-08T06:37:34;47.58;;;18.73;;
63902;SDS011;50072;50.678;13.938;2024-03-08T06:40:02;53.60;;;18.63;;
63902;SDS011;50072;50.678;13.938;2024-03-08T06:42:29;50.92;;;18.27;;
63902;SDS011;50072;50.678;13.938;2024-03-08T06:45:01;49.13;;;18.55;;
63902;SDS011;50072;50.678;13.938;2024-03-08T06:47:32;63.15;;;21.50;;
63902;SDS011;50072;50.678;13.938;2024-03-08T06:50:01;62.50;;;21.35;;
63902;SDS011;50072;50.678;13.938;2024-03-08T06:52:28;58.08;;;20.60;;
63902;SDS011;50072;50.678;13.938;2024-03-08T06:54:54;77.95;;;26.23;;
63902;SDS011;50072;50.678;13.938;2024-03-08T06:57:24;77.53;;;28.70;;
63902;SDS011;50072;50.678;13.938;2024-03-08T06:59:51;87.45;;;31.75;;
63902;SDS011;50072;50.678;13.938;2024-03-08T07:02:17;82.43;;;30.67;;
63902;SDS011;50072;50.678;13.938;2024-03-08T07:04:45;92.57;;;32.17;;
63902;SDS011;50072;50.678;13.938;2024-03-08T07:07:12;84.03;;;30.75;;
63902;SDS011;50072;50.678;13.938;2024-03-08T07:09:38;74.82;;;27.60;;
63902;SDS011;50072;50.678;13.938;2024-03-08T07:12:05;72.07;;;26.02;;
63902;SDS011;50072;50.678;13.938;2024-03-08T07:14:32;62.03;;;23.17;;
63902;SDS011;50072;50.678;13.938;2024-03-08T07:16:58;63.10;;;23.73;;
63902;SDS011;50072;50.678;13.938;2024-03-08T07:19:26;63.05;;;23.92;;
63902;SDS011;50072;50.678;13.938;2024-03-08T07:21:52;63.47;;;24.20;;
63902;SDS011;50072;50.678;13.938;2024-03-08T07:24:18;78.30;;;26.63;;
63902;SDS011;50072;50.678;13.938;2024-03-08T07:26:44;76.70;;;27.52;;
63902;SDS011;50072;50.678;13.938;2024-03-08T07:29:17;72.18;;;26.90;;
63902;SDS011;50072;50.678;13.938;2024-03-08T07:31:43;70.95;;;26.27;;
63902;SDS011;50072;50.678;13.938;2024-03-08T07:34:38;73.28;;;26.90;;
63902;SDS011;50072;50.678;13.938;2024-03-08T07:37:05;73.10;;;26.88;;
63902;SDS011;50072;50.678;13.938;2024-03-08T07:39:37;73.38;;;28.60;;
63902;SDS011;50072;50.678;13.938;2024-03-08T07:42:04;85.60;;;30.77;;
63902;SDS011;50072;50.678;13.938;2024-03-08T07:44:31;101.22;;;37.10;;
63902;SDS011;50072;50.678;13.938;2024-03-08T07:46:58;66.78;;;29.58;;
63902;SDS011;50072;50.678;13.938;2024-03-08T07:49:25;60.92;;;26.40;;
63902;SDS011;50072;50.678;13.938;2024-03-08T07:51:52;53.97;;;23.23;;
63902;SDS011;50072;50.678;13.938;2024-03-08T07:54:19;57.72;;;23.67;;
63902;SDS011;50072;50.678;13.938;2024-03-08T07:56:45;64.00;;;26.60;;
63902;SDS011;50072;50.678;13.938;2024-03-08T07:59:11;60.15;;;26.77;;
63902;SDS011;50072;50.678;13.938;2024-03-08T08:01:37;66.90;;;27.00;;
63902;SDS011;50072;50.678;13.938;2024-03-08T08:04:04;55.58;;;22.50;;
63902;SDS011;50072;50.678;13.938;2024-03-08T08:06:30;57.00;;;23.63;;
63902;SDS011;50072;50.678;13.938;2024-03-08T08:09:01;53.13;;;22.10;;
63902;SDS011;50072;50.678;13.938;2024-03-08T08:11:27;51.80;;;21.40;;
63902;SDS011;50072;50.678;13.938;2024-03-08T08:13:55;50.83;;;22.17;;
63902;SDS011;50072;50.678;13.938;2024-03-08T08:16:26;57.78;;;24.73;;
63902;SDS011;50072;50.678;13.938;2024-03-08T08:18:53;55.30;;;22.55;;
63902;SDS011;50072;50.678;13.938;2024-03-08T08:21:20;57.63;;;22.55;;
63902;SDS011;50072;50.678;13.938;2024-03-08T08:23:48;68.72;;;29.25;;
63902;SDS011;50072;50.678;13.938;2024-03-08T08:26:15;56.55;;;22.58;;
63902;SDS011;50072;50.678;13.938;2024-03-08T08:28:43;63.47;;;26.98;;
63902;SDS011;50072;50.678;13.938;2024-03-08T08:31:11;61.53;;;27.50;;
63902;SDS011;50072;50.678;13.938;2024-03-08T08:33:39;57.42;;;26.10;;
63902;SDS011;50072;50.678;13.938;2024-03-08T08:36:06;59.72;;;27.83;;
63902;SDS011;50072;50.678;13.938;2024-03-08T08:38:33;58.60;;;24.88;;
63902;SDS011;50072;50.678;13.938;2024-03-08T08:41:00;55.90;;;25.55;;
63902;SDS011;50072;50.678;13.938;2024-03-08T08:43:27;55.33;;;23.88;;
63902;SDS011;50072;50.678;13.938;2024-03-08T08:45:53;58.85;;;24.13;;
63902;SDS011;50072;50.678;13.938;2024-03-08T08:48:21;50.20;;;22.13;;
63902;SDS011;50072;50.678;13.938;2024-03-08T08:50:48;44.85;;;20.20;;
63902;SDS011;50072;50.678;13.938;2024-03-08T08:53:14;44.00;;;20.83;;
63902;SDS011;50072;50.678;13.938;2024-03-08T08:55:42;48.20;;;21.63;;
63902;SDS011;50072;50.678;13.938;2024-03-08T08:58:08;44.20;;;19.90;;
63902;SDS011;50072;50.678;13.938;2024-03-08T09:00:34;45.20;;;20.65;;
63902;SDS011;50072;50.678;13.938;2024-03-08T09:03:01;48.53;;;20.50;;
63902;SDS011;50072;50.678;13.938;2024-03-08T09:05:28;47.08;;;20.50;;
63902;SDS011;50072;50.678;13.938;2024-03-08T09:07:54;46.78;;;21.05;;
63902;SDS011;50072;50.678;13.938;2024-03-08T09:10:20;45.05;;;19.65;;
63902;SDS011;50072;50.678;13.938;2024-03-08T09:12:47;40.95;;;19.67;;
63902;SDS011;50072;50.678;13.938;2024-03-08T09:15:13;43.03;;;19.63;;
63902;SDS011;50072;50.678;13.938;2024-03-08T09:17:44;44.28;;;19.05;;
63902;SDS011;50072;50.678;13.938;2024-03-08T09:20:10;37.47;;;17.65;;
63902;SDS011;50072;50.678;13.938;2024-03-08T09:22:43;37.47;;;18.00;;
63902;SDS011;50072;50.678;13.938;2024-03-08T09:25:09;38.67;;;17.98;;
63902;SDS011;50072;50.678;13.938;2024-03-08T09:27:36;38.83;;;18.73;;
63902;SDS011;50072;50.678;13.938;2024-03-08T09:30:02;36.55;;;17.63;;
63902;SDS011;50072;50.678;13.938;2024-03-08T09:32:32;40.38;;;17.80;;
63902;SDS011;50072;50.678;13.938;2024-03-08T09:34:59;33.90;;;16.85;;
63902;SDS011;50072;50.678;13.938;2024-03-08T09:37:27;41.22;;;18.08;;
63902;SDS011;50072;50.678;13.938;2024-03-08T09:39:53;36.72;;;17.52;;
63902;SDS011;50072;50.678;13.938;2024-03-08T09:42:20;38.75;;;18.55;;
63902;SDS011;50072;50.678;13.938;2024-03-08T09:44:46;38.70;;;17.58;;
63902;SDS011;50072;50.678;13.938;2024-03-08T09:47:14;41.83;;;18.20;;
63902;SDS011;50072;50.678;13.938;2024-03-08T09:49:41;41.70;;;18.90;;
63902;SDS011;50072;50.678;13.938;2024-03-08T09:52:10;43.10;;;18.60;;
63902;SDS011;50072;50.678;13.938;2024-03-08T09:54:37;42.63;;;19.08;;
63902;SDS011;50072;50.678;13.938;2024-03-08T09:57:05;40.00;;;19.02;;
63902;SDS011;50072;50.678;13.938;2024-03-08T09:59:36;39.13;;;17.90;;
63902;SDS011;50072;50.678;13.938;2024-03-08T10:02:04;38.85;;;17.38;;
63902;SDS011;50072;50.678;13.938;2024-03-08T10:04:30;36.10;;;18.05;;
63902;SDS011;50072;50.678;13.938;2024-03-08T10:07:00;40.50;;;17.83;;
63902;SDS011;50072;50.678;13.938;2024-03-08T10:09:27;43.78;;;18.52;;
63902;SDS011;50072;50.678;13.938;2024-03-08T10:11:57;40.22;;;18.90;;
63902;SDS011;50072;50.678;13.938;2024-03-08T10:14:25;41.97;;;19.23;;
63902;SDS011;50072;50.678;13.938;2024-03-08T10:16:55;41.08;;;19.80;;
63902;SDS011;50072;50.678;13.938;2024-03-08T10:19:26;36.20;;;17.73;;
63902;SDS011;50072;50.678;13.938;2024-03-08T10:21:56;34.55;;;17.55;;
63902;SDS011;50072;50.678;13.938;2024-03-08T10:24:23;39.10;;;17.55;;
63902;SDS011;50072;50.678;13.938;2024-03-08T10:26:53;34.83;;;17.85;;
63902;SDS011;50072;50.678;13.938;2024-03-08T10:29:32;33.83;;;17.38;;
63902;SDS011;50072;50.678;13.938;2024-03-08T10:31:59;35.67;;;17.65;;
63902;SDS011;50072;50.678;13.938;2024-03-08T10:34:28;32.83;;;17.08;;
63902;SDS011;50072;50.678;13.938;2024-03-08T10:36:55;31.30;;;17.40;;
63902;SDS011;50072;50.678;13.938;2024-03-08T10:39:30;35.85;;;16.85;;
63902;SDS011;50072;50.678;13.938;2024-03-08T10:49:31;31.98;;;16.13;;
63902;SDS011;50072;50.678;13.938;2024-03-08T10:52:04;32.58;;;17.30;;
63902;SDS011;50072;50.678;13.938;2024-03-08T10:54:33;34.58;;;18.25;;
63902;SDS011;50072;50.678;13.938;2024-03-08T10:57:06;31.15;;;16.65;;
63902;SDS011;50072;50.678;13.938;2024-03-08T10:59:34;31.08;;;17.42;;
63902;SDS011;50072;50.678;13.938;2024-03-08T11:02:01;32.92;;;17.23;;
63902;SDS011;50072;50.678;13.938;2024-03-08T11:04:36;30.08;;;17.23;;
63902;SDS011;50072;50.678;13.938;2024-03-08T11:07:10;32.08;;;17.40;;
63902;SDS011;50072;50.678;13.938;2024-03-08T11:09:42;35.08;;;17.35;;
63902;SDS011;50072;50.678;13.938;2024-03-08T11:15:11;26.85;;;15.82;;
63902;SDS011;50072;50.678;13.938;2024-03-08T11:17:49;27.63;;;15.95;;
63902;SDS011;50072;50.678;13.938;2024-03-08T11:20:16;28.90;;;16.65;;
63902;SDS011;50072;50.678;13.938;2024-03-08T11:23:00;29.73;;;15.90;;
63902;SDS011;50072;50.678;13.938;2024-03-08T11:25:46;29.05;;;16.40;;
63902;SDS011;50072;50.678;13.938;2024-03-08T11:28:19;25.40;;;14.75;;
63902;SDS011;50072;50.678;13.938;2024-03-08T11:33:28;33.47;;;18.10;;
63902;SDS011;50072;50.678;13.938;2024-03-08T11:36:13;31.60;;;17.08;;
63902;SDS011;50072;50.678;13.938;2024-03-08T11:41:45;27.08;;;15.05;;
63902;SDS011;50072;50.678;13.938;2024-03-08T11:44:13;29.33;;;16.35;;
63902;SDS011;50072;50.678;13.938;2024-03-08T11:49:15;28.58;;;17.27;;
63902;SDS011;50072;50.678;13.938;2024-03-08T11:51:41;27.20;;;15.60;;
63902;SDS011;50072;50.678;13.938;2024-03-08T11:56:42;26.75;;;15.43;;
63902;SDS011;50072;50.678;13.938;2024-03-08T11:59:13;24.60;;;14.70;;
63902;SDS011;50072;50.678;13.938;2024-03-08T12:01:40;26.02;;;14.57;;
63902;SDS011;50072;50.678;13.938;2024-03-08T12:09:11;25.73;;;15.10;;
63902;SDS011;50072;50.678;13.938;2024-03-08T12:11:38;25.17;;;13.73;;
63902;SDS011;50072;50.678;13.938;2024-03-08T12:14:08;22.15;;;14.02;;
63902;SDS011;50072;50.678;13.938;2024-03-08T12:16:36;21.85;;;13.15;;
63902;SDS011;50072;50.678;13.938;2024-03-08T12:19:02;26.23;;;14.13;;
63902;SDS011;50072;50.678;13.938;2024-03-08T12:21:38;21.65;;;13.55;;
63902;SDS011;50072;50.678;13.938;2024-03-08T12:24:11;33.00;;;16.85;;
63902;SDS011;50072;50.678;13.938;2024-03-08T12:26:42;27.23;;;15.32;;
63902;SDS011;50072;50.678;13.938;2024-03-08T12:31:53;22.13;;;13.20;;
63902;SDS011;50072;50.678;13.938;2024-03-08T12:34:21;22.45;;;14.15;;
63902;SDS011;50072;50.678;13.938;2024-03-08T12:36:48;21.23;;;12.43;;
63902;SDS011;50072;50.678;13.938;2024-03-08T12:41:48;20.88;;;11.70;;
63902;SDS011;50072;50.678;13.938;2024-03-08T12:44:17;20.02;;;11.45;;
63902;SDS011;50072;50.678;13.938;2024-03-08T12:46:44;17.33;;;10.93;;
63902;SDS011;50072;50.678;13.938;2024-03-08T12:49:11;22.40;;;12.57;;
63902;SDS011;50072;50.678;13.938;2024-03-08T12:51:38;17.42;;;11.35;;
63902;SDS011;50072;50.678;13.938;2024-03-08T12:54:05;15.30;;;9.55;;
63902;SDS011;50072;50.678;13.938;2024-03-08T12:56:34;19.05;;;9.93;;
63902;SDS011;50072;50.678;13.938;2024-03-08T12:59:03;15.10;;;9.38;;
63902;SDS011;50072;50.678;13.938;2024-03-08T13:01:30;16.60;;;9.27;;
63902;SDS011;50072;50.678;13.938;2024-03-08T13:04:03;17.23;;;9.63;;
63902;SDS011;50072;50.678;13.938;2024-03-08T13:06:32;15.57;;;8.23;;
63902;SDS011;50072;50.678;13.938;2024-03-08T13:08:59;14.88;;;9.10;;
63902;SDS011;50072;50.678;13.938;2024-03-08T13:11:31;15.90;;;8.75;;
63902;SDS011;50072;50.678;13.938;2024-03-08T13:14:03;12.20;;;7.32;;
63902;SDS011;50072;50.678;13.938;2024-03-08T13:16:30;12.30;;;7.97;;
63902;SDS011;50072;50.678;13.938;2024-03-08T13:18:58;14.70;;;8.45;;
63902;SDS011;50072;50.678;13.938;2024-03-08T13:21:23;16.45;;;10.25;;
63902;SDS011;50072;50.678;13.938;2024-03-08T13:23:50;12.65;;;7.45;;
63902;SDS011;50072;50.678;13.938;2024-03-08T13:26:18;13.02;;;7.82;;
63902;SDS011;50072;50.678;13.938;2024-03-08T13:28:45;14.63;;;8.13;;
63902;SDS011;50072;50.678;13.938;2024-03-08T13:31:11;14.60;;;8.60;;
63902;SDS011;50072;50.678;13.938;2024-03-08T13:33:38;12.75;;;7.10;;
63902;SDS011;50072;50.678;13.938;2024-03-08T13:36:05;13.23;;;7.40;;
63902;SDS011;50072;50.678;13.938;2024-03-08T13:38:43;15.40;;;8.57;;
63902;SDS011;50072;50.678;13.938;2024-03-08T13:41:11;16.00;;;8.35;;
63902;SDS011;50072;50.678;13.938;2024-03-08T13:43:41;13.57;;;6.72;;
63902;SDS011;50072;50.678;13.938;2024-03-08T13:46:08;12.38;;;7.45;;
63902;SDS011;50072;50.678;13.938;2024-03-08T13:48:40;12.50;;;7.50;;
63902;SDS011;50072;50.678;13.938;2024-03-08T13:51:07;17.02;;;10.27;;
63902;SDS011;50072;50.678;13.938;2024-03-08T13:53:35;14.98;;;9.13;;
63902;SDS011;50072;50.678;13.938;2024-03-08T13:56:02;20.92;;;11.95;;
63902;SDS011;50072;50.678;13.938;2024-03-08T13:58:29;15.23;;;9.38;;
63902;SDS011;50072;50.678;13.938;2024-03-08T14:00:56;21.13;;;12.55;;
63902;SDS011;50072;50.678;13.938;2024-03-08T14:03:25;16.63;;;9.93;;
63902;SDS011;50072;50.678;13.938;2024-03-08T14:05:51;17.65;;;9.80;;
63902;SDS011;50072;50.678;13.938;2024-03-08T14:08:18;14.75;;;8.50;;
63902;SDS011;50072;50.678;13.938;2024-03-08T14:10:45;12.50;;;8.32;;
63902;SDS011;50072;50.678;13.938;2024-03-08T14:13:18;14.13;;;8.38;;
63902;SDS011;50072;50.678;13.938;2024-03-08T14:15:48;18.83;;;8.95;;
63902;SDS011;50072;50.678;13.938;2024-03-08T14:18:17;16.30;;;9.23;;
63902;SDS011;50072;50.678;13.938;2024-03-08T14:20:45;17.60;;;9.48;;
63902;SDS011;50072;50.678;13.938;2024-03-08T14:23:13;15.93;;;9.98;;
63902;SDS011;50072;50.678;13.938;2024-03-08T14:25:39;14.88;;;8.85;;
63902;SDS011;50072;50.678;13.938;2024-03-08T14:28:05;15.82;;;9.52;;
63902;SDS011;50072;50.678;13.938;2024-03-08T14:30:33;14.50;;;9.32;;
63902;SDS011;50072;50.678;13.938;2024-03-08T14:33:02;15.57;;;9.93;;
63902;SDS011;50072;50.678;13.938;2024-03-08T14:35:33;21.60;;;11.23;;
63902;SDS011;50072;50.678;13.938;2024-03-08T14:38:02;19.05;;;11.40;;
63902;SDS011;50072;50.678;13.938;2024-03-08T14:40:28;18.10;;;10.48;;
63902;SDS011;50072;50.678;13.938;2024-03-08T14:42:56;20.13;;;10.80;;
63902;SDS011;50072;50.678;13.938;2024-03-08T14:45:23;18.52;;;10.70;;
63902;SDS011;50072;50.678;13.938;2024-03-08T14:47:54;17.55;;;9.90;;
63902;SDS011;50072;50.678;13.938;2024-03-08T14:50:21;17.67;;;10.13;;
63902;SDS011;50072;50.678;13.938;2024-03-08T14:52:50;17.90;;;10.43;;
63902;SDS011;50072;50.678;13.938;2024-03-08T14:55:20;21.50;;;12.40;;
63902;SDS011;50072;50.678;13.938;2024-03-08T14:57:49;18.67;;;10.50;;
63902;SDS011;50072;50.678;13.938;2024-03-08T15:00:20;113.57;;;46.33;;
63902;SDS011;50072;50.678;13.938;2024-03-08T15:02:55;43.72;;;20.05;;
63902;SDS011;50072;50.678;13.938;2024-03-08T15:05:22;22.00;;;11.82;;
63902;SDS011;50072;50.678;13.938;2024-03-08T15:07:58;27.98;;;12.77;;
63902;SDS011;50072;50.678;13.938;2024-03-08T15:10:28;23.88;;;12.57;;
63902;SDS011;50072;50.678;13.938;2024-03-08T15:13:00;18.95;;;10.80;;
63902;SDS011;50072;50.678;13.938;2024-03-08T15:15:30;21.30;;;12.07;;